sensor_id;sensor_type;location;lat;lon;timestamp;pressure;altitude;pressure_sealevel;temperature;humidity
62710;BME280;48770;51.624;5.886;2024-03-02T00:01:47;99719.81;;;19.39;44.19
62710;BME280;48770;51.624;5.886;2024-03-02T00:04:12;99721.84;;;19.42;44.19
62710;BME280;48770;51.624;5.886;2024-03-02T00:06:38;99714.69;;;19.41;44.03
62710;BME280;48770;51.624;5.886;2024-03-02T00:09:03;99715.50;;;19.41;44.14
62710;BME280;48770;51.624;5.886;2024-03-02T00:11:29;99719.88;;;19.42;44.12
62710;BME280;48770;51.624;5.886;2024-03-02T00:13:54;99721.03;;;19.41;44.19
62710;BME280;48770;51.624;5.886;2024-03-02T00:16:19;99719.06;;;19.42;44.09
62710;BME280;48770;51.624;5.886;2024-03-02T00:18:45;99716.28;;;19.42;44.12
62710;BME280;48770;51.624;5.886;2024-03-02T00:21:11;99718.28;;;19.41;44.02
62710;BME280;48770;51.624;5.886;2024-03-02T00:23:38;99730.97;;;19.42;44.05
62710;BME280;48770;51.624;5.886;2024-03-02T00:26:03;99726.59;;;19.41;44.12
62710;BME280;48770;51.624;5.886;2024-03-02T00:28:34;99724.63;;;19.42;44.04
62710;BME280;48770;51.624;5.886;2024-03-02T00:31:07;99721.78;;;19.38;44.20
62710;BME280;48770;51.624;5.886;2024-03-02T00:33:35;99715.88;;;19.40;44.13
62710;BME280;48770;51.624;5.886;2024-03-02T00:36:02;99725.78;;;19.41;44.05
62710;BME280;48770;51.624;5.886;2024-03-02T00:38:30;99723.81;;;19.41;43.94
62710;BME280;48770;51.624;5.886;2024-03-02T00:40:56;99730.53;;;19.40;44.05
62710;BME280;48770;51.624;5.886;2024-03-02T00:46:06;99740.38;;;19.38;43.94
62710;BME280;48770;51.624;5.886;2024-03-02T00:48:32;99735.63;;;19.38;44.00
62710;BME280;48770;51.624;5.886;2024-03-02T00:51:01;99738.41;;;19.38;44.13
62710;BME280;48770;51.624;5.886;2024-03-02T00:53:29;99744.75;;;19.39;43.97
62710;BME280;48770;51.624;5.886;2024-03-02T00:55:54;99749.50;;;19.38;44.08
62710;BME280;48770;51.624;5.886;2024-03-02T00:58:19;99759.00;;;19.37;44.06
62710;BME280;48770;51.624;5.886;2024-03-02T01:00:45;99770.88;;;19.38;43.99
62710;BME280;48770;51.624;5.886;2024-03-02T01:03:10;99790.66;;;19.36;44.05
62710;BME280;48770;51.624;5.886;2024-03-02T01:05:36;99814.44;;;19.37;44.01
62710;BME280;48770;51.624;5.886;2024-03-02T01:08:01;99818.38;;;19.36;44.15
62710;BME280;48770;51.624;5.886;2024-03-02T01:10:26;99838.56;;;19.37;44.01
62710;BME280;48770;51.624;5.886;2024-03-02T01:12:52;99833.84;;;19.37;44.17
62710;BME280;48770;51.624;5.886;2024-03-02T01:15:18;99839.75;;;19.36;44.08
62710;BME280;48770;51.624;5.886;2024-03-02T01:17:43;99836.16;;;19.35;43.84
62710;BME280;48770;51.624;5.886;2024-03-02T01:20:08;99831.78;;;19.34;43.98
62710;BME280;48770;51.624;5.886;2024-03-02T01:22:34;99832.59;;;19.35;43.94
62710;BME280;48770;51.624;5.886;2024-03-02T01:25:01;99835.38;;;19.35;43.86
62710;BME280;48770;51.624;5.886;2024-03-02T01:27:26;99840.09;;;19.34;43.89
62710;BME280;48770;51.624;5.886;2024-03-02T01:29:52;99834.94;;;19.33;43.81
62710;BME280;48770;51.624;5.886;2024-03-02T01:32:17;99839.69;;;19.32;43.80
62710;BME280;48770;51.624;5.886;2024-03-02T01:34:43;99836.91;;;19.32;43.80
62710;BME280;48770;51.624;5.886;2024-03-02T01:37:08;99845.22;;;19.32;43.82
62710;BME280;48770;51.624;5.886;2024-03-02T01:39:35;99847.19;;;19.32;43.77
62710;BME280;48770;51.624;5.886;2024-03-02T01:42:00;99838.06;;;19.31;43.74
62710;BME280;48770;51.624;5.886;2024-03-02T01:44:25;99840.03;;;19.31;43.95
62710;BME280;48770;51.624;5.886;2024-03-02T01:46:51;99836.47;;;19.30;43.95
62710;BME280;48770;51.624;5.886;2024-03-02T01:49:16;99833.69;;;19.30;43.88
62710;BME280;48770;51.624;5.886;2024-03-02T01:51:41;99826.19;;;19.31;43.78
62710;BME280;48770;51.624;5.886;2024-03-02T01:54:07;99821.81;;;19.30;43.74
62710;BME280;48770;51.624;5.886;2024-03-02T01:56:32;99830.13;;;19.30;43.69
62710;BME280;48770;51.624;5.886;2024-03-02T01:58:58;99832.09;;;19.29;43.88
62710;BME280;48770;51.624;5.886;2024-03-02T02:01:23;99834.88;;;19.29;43.57
62710;BME280;48770;51.624;5.886;2024-03-02T02:03:49;99829.31;;;19.29;43.76
62710;BME280;48770;51.624;5.886;2024-03-02T02:06:14;99829.31;;;19.29;43.83
62710;BME280;48770;51.624;5.886;2024-03-02T02:08:39;99818.25;;;19.29;43.96
62710;BME280;48770;51.624;5.886;2024-03-02T02:11:05;99815.47;;;19.29;43.84
62710;BME280;48770;51.624;5.886;2024-03-02T02:13:30;99805.56;;;19.28;43.88
62710;BME280;48770;51.624;5.886;2024-03-02T02:16:04;99809.03;;;19.25;43.43
62710;BME280;48770;51.624;5.886;2024-03-02T02:18:29;99806.72;;;19.27;43.83
62710;BME280;48770;51.624;5.886;2024-03-02T02:20:55;99801.97;;;19.28;43.63
62710;BME280;48770;51.624;5.886;2024-03-02T02:23:20;99805.56;;;19.28;43.73
62710;BME280;48770;51.624;5.886;2024-03-02T02:25:45;99811.09;;;19.28;43.70
62710;BME280;48770;51.624;5.886;2024-03-02T02:28:11;99809.50;;;19.27;43.75
62710;BME280;48770;51.624;5.886;2024-03-02T02:30:36;99818.59;;;19.28;43.85
62710;BME280;48770;51.624;5.886;2024-03-02T02:33:01;99814.22;;;19.27;43.88
62710;BME280;48770;51.624;5.886;2024-03-02T02:35:27;99815.03;;;19.27;43.70
62710;BME280;48770;51.624;5.886;2024-03-02T02:37:54;99822.19;;;19.28;43.57
62710;BME280;48770;51.624;5.886;2024-03-02T02:40:20;99820.56;;;19.27;43.83
62710;BME280;48770;51.624;5.886;2024-03-02T02:42:46;99823.34;;;19.27;44.04
62710;BME280;48770;51.624;5.886;2024-03-02T02:45:11;99817.81;;;19.27;43.75
62710;BME280;48770;51.624;5.886;2024-03-02T02:47:38;99818.59;;;19.28;43.79
62710;BME280;48770;51.624;5.886;2024-03-02T02:50:04;99792.06;;;19.27;43.55
62710;BME280;48770;51.624;5.886;2024-03-02T02:52:34;99796.00;;;19.26;43.77
62710;BME280;48770;51.624;5.886;2024-03-02T02:55:03;99794.03;;;19.26;43.78
62710;BME280;48770;51.624;5.886;2024-03-02T02:57:28;99794.84;;;19.27;43.82
62710;BME280;48770;51.624;5.886;2024-03-02T02:59:56;99791.25;;;19.26;43.54
62710;BME280;48770;51.624;5.886;2024-03-02T03:02:21;99797.13;;;19.25;43.88
62710;BME280;48770;51.624;5.886;2024-03-02T03:04:46;99801.53;;;19.26;43.78
62710;BME280;48770;51.624;5.886;2024-03-02T03:07:11;99806.25;;;19.25;43.68
62710;BME280;48770;51.624;5.886;2024-03-02T03:09:37;99796.34;;;19.24;43.78
62710;BME280;48770;51.624;5.886;2024-03-02T03:12:04;99811.00;;;19.25;43.57
62710;BME280;48770;51.624;5.886;2024-03-02T03:14:29;99823.25;;;19.24;43.80
62710;BME280;48770;51.624;5.886;2024-03-02T03:16:54;99817.72;;;19.24;43.96
62710;BME280;48770;51.624;5.886;2024-03-02T03:19:20;99818.88;;;19.23;43.72
62710;BME280;48770;51.624;5.886;2024-03-02T03:21:45;99824.06;;;19.24;43.61
62710;BME280;48770;51.624;5.886;2024-03-02T03:24:10;99824.41;;;19.23;43.69
62710;BME280;48770;51.624;5.886;2024-03-02T03:26:36;99830.75;;;19.23;43.58
62710;BME280;48770;51.624;5.886;2024-03-02T03:29:01;99832.72;;;19.23;43.66
62710;BME280;48770;51.624;5.886;2024-03-02T03:31:28;99833.91;;;19.22;43.63
62710;BME280;48770;51.624;5.886;2024-03-02T03:33:53;99833.09;;;19.21;43.56
62710;BME280;48770;51.624;5.886;2024-03-02T03:36:18;99841.41;;;19.21;43.61
62710;BME280;48770;51.624;5.886;2024-03-02T03:38:43;99846.97;;;19.21;43.74
62710;BME280;48770;51.624;5.886;2024-03-02T03:41:09;99843.38;;;19.21;43.83
62710;BME280;48770;51.624;5.886;2024-03-02T03:43:35;99847.75;;;19.22;43.66
62710;BME280;48770;51.624;5.886;2024-03-02T03:46:01;99838.66;;;19.21;43.70
62710;BME280;48770;51.624;5.886;2024-03-02T03:48:27;99843.38;;;19.21;43.77
62710;BME280;48770;51.624;5.886;2024-03-02T03:50:55;99828.72;;;19.20;43.70
62710;BME280;48770;51.624;5.886;2024-03-02T03:53:21;99849.28;;;19.19;43.67
62710;BME280;48770;51.624;5.886;2024-03-02T03:55:47;99865.56;;;19.21;43.53
62710;BME280;48770;51.624;5.886;2024-03-02T03:58:14;99856.44;;;19.20;43.64
62710;BME280;48770;51.624;5.886;2024-03-02T04:00:39;99859.56;;;19.19;43.58
62710;BME280;48770;51.624;5.886;2024-03-02T04:03:05;99851.25;;;19.19;43.74
62710;BME280;48770;51.624;5.886;2024-03-02T04:05:30;99845.72;;;19.19;43.63
62710;BME280;48770;51.624;5.886;2024-03-02T04:07:56;99843.75;;;19.19;43.74
62710;BME280;48770;51.624;5.886;2024-03-02T04:10:21;99835.00;;;19.17;43.82
62710;BME280;48770;51.624;5.886;2024-03-02T04:12:46;99833.84;;;19.18;43.72
62710;BME280;48770;51.624;5.886;2024-03-02T04:15:11;99843.31;;;19.17;43.67
62710;BME280;48770;51.624;5.886;2024-03-02T04:17:37;99842.16;;;19.18;43.70
62710;BME280;48770;51.624;5.886;2024-03-02T04:20:02;99837.78;;;19.17;43.48
62710;BME280;48770;51.624;5.886;2024-03-02T04:22:30;99849.22;;;19.16;43.46
62710;BME280;48770;51.624;5.886;2024-03-02T04:24:55;99853.59;;;19.17;43.69
62710;BME280;48770;51.624;5.886;2024-03-02T04:27:20;99842.50;;;19.17;43.59
62710;BME280;48770;51.624;5.886;2024-03-02T04:29:46;99843.69;;;19.16;43.21
62710;BME280;48770;51.624;5.886;2024-03-02T04:32:11;99836.16;;;19.16;43.70
62710;BME280;48770;51.624;5.886;2024-03-02T04:34:36;99850.03;;;19.16;43.51
62710;BME280;48770;51.624;5.886;2024-03-02T04:37:02;99850.41;;;19.15;43.53
62710;BME280;48770;51.624;5.886;2024-03-02T04:39:27;99853.16;;;19.15;43.71
62710;BME280;48770;51.624;5.886;2024-03-02T04:41:52;99855.56;;;19.16;43.30
62710;BME280;48770;51.624;5.886;2024-03-02T04:44:18;99853.97;;;19.15;43.53
62710;BME280;48770;51.624;5.886;2024-03-02T04:46:43;99865.84;;;19.16;43.56
62710;BME280;48770;51.624;5.886;2024-03-02T04:49:08;99866.22;;;19.14;43.29
62710;BME280;48770;51.624;5.886;2024-03-02T04:51:34;99864.25;;;19.15;43.33
62710;BME280;48770;51.624;5.886;2024-03-02T04:53:59;99863.44;;;19.14;43.66
62710;BME280;48770;51.624;5.886;2024-03-02T04:56:24;99870.16;;;19.13;43.57
62710;BME280;48770;51.624;5.886;2024-03-02T04:59:08;99871.31;;;19.12;43.64
62710;BME280;48770;51.624;5.886;2024-03-02T05:01:33;99881.25;;;19.13;43.58
62710;BME280;48770;51.624;5.886;2024-03-02T05:03:59;99877.31;;;19.14;43.50
62710;BME280;48770;51.624;5.886;2024-03-02T05:06:24;99870.97;;;19.14;43.56
62710;BME280;48770;51.624;5.886;2024-03-02T05:08:49;99882.03;;;19.14;43.65
62710;BME280;48770;51.624;5.886;2024-03-02T05:11:14;99873.72;;;19.14;43.67
62710;BME280;48770;51.624;5.886;2024-03-02T05:13:58;99873.69;;;18.94;43.80
62710;BME280;48770;51.624;5.886;2024-03-02T05:16:24;99886.19;;;19.04;43.88
62710;BME280;48770;51.624;5.886;2024-03-02T05:18:49;99879.13;;;19.06;43.71
62710;BME280;48770;51.624;5.886;2024-03-02T05:21:14;99880.72;;;19.07;43.79
62710;BME280;48770;51.624;5.886;2024-03-02T05:23:40;99883.13;;;19.09;43.62
62710;BME280;48770;51.624;5.886;2024-03-02T05:26:05;99881.16;;;19.09;43.78
62710;BME280;48770;51.624;5.886;2024-03-02T05:28:31;99880.38;;;19.09;43.69
62710;BME280;48770;51.624;5.886;2024-03-02T05:30:56;99891.88;;;19.11;43.65
62710;BME280;48770;51.624;5.886;2024-03-02T05:33:21;99882.78;;;19.10;43.49
62710;BME280;48770;51.624;5.886;2024-03-02T05:35:47;99886.34;;;19.11;43.42
62710;BME280;48770;51.624;5.886;2024-03-02T05:38:15;99889.13;;;19.11;43.53
62710;BME280;48770;51.624;5.886;2024-03-02T05:40:40;99896.25;;;19.12;43.47
62710;BME280;48770;51.624;5.886;2024-03-02T05:43:05;99886.78;;;19.13;43.31
62710;BME280;48770;51.624;5.886;2024-03-02T05:45:31;99892.69;;;19.12;43.66
62710;BME280;48770;51.624;5.886;2024-03-02T05:47:56;99897.06;;;19.13;43.37
62710;BME280;48770;51.624;5.886;2024-03-02T05:50:21;99891.88;;;19.11;43.52
62710;BME280;48770;51.624;5.886;2024-03-02T05:52:47;99900.19;;;19.11;43.56
62710;BME280;48770;51.624;5.886;2024-03-02T05:55:12;99890.72;;;19.12;43.50
62710;BME280;48770;51.624;5.886;2024-03-02T05:57:37;99896.25;;;19.12;43.45
62710;BME280;48770;51.624;5.886;2024-03-02T06:00:08;99897.44;;;19.11;43.66
62710;BME280;48770;51.624;5.886;2024-03-02T06:02:34;99897.44;;;19.11;43.46
62710;BME280;48770;51.624;5.886;2024-03-02T06:05:00;99901.44;;;19.14;43.45
62710;BME280;48770;51.624;5.886;2024-03-02T06:07:25;99907.34;;;19.12;43.34
62710;BME280;48770;51.624;5.886;2024-03-02T06:09:51;99908.94;;;19.13;43.75
62710;BME280;48770;51.624;5.886;2024-03-02T06:12:18;99908.16;;;19.13;43.40
62710;BME280;48770;51.624;5.886;2024-03-02T06:14:44;99912.88;;;19.12;43.63
62710;BME280;48770;51.624;5.886;2024-03-02T06:17:09;99917.63;;;19.12;43.55
62710;BME280;48770;51.624;5.886;2024-03-02T06:19:34;99913.25;;;19.10;43.46
62710;BME280;48770;51.624;5.886;2024-03-02T06:22:00;99912.09;;;19.12;43.22
62710;BME280;48770;51.624;5.886;2024-03-02T06:24:25;99921.19;;;19.12;43.31
62710;BME280;48770;51.624;5.886;2024-03-02T06:26:51;99924.78;;;19.13;43.37
62710;BME280;48770;51.624;5.886;2024-03-02T06:29:17;99921.19;;;19.12;43.77
62710;BME280;48770;51.624;5.886;2024-03-02T06:31:43;99933.44;;;19.11;43.40
62710;BME280;48770;51.624;5.886;2024-03-02T06:34:08;99935.06;;;19.12;43.37
62710;BME280;48770;51.624;5.886;2024-03-02T06:36:34;99938.63;;;19.13;43.57
62710;BME280;48770;51.624;5.886;2024-03-02T06:38:59;99931.47;;;19.12;43.21
62710;BME280;48770;51.624;5.886;2024-03-02T06:41:25;99934.25;;;19.12;43.39
62710;BME280;48770;51.624;5.886;2024-03-02T06:43:51;99942.56;;;19.12;43.45
62710;BME280;48770;51.624;5.886;2024-03-02T06:46:24;99931.84;;;19.10;43.40
62710;BME280;48770;51.624;5.886;2024-03-02T06:48:50;99946.13;;;19.12;43.33
62710;BME280;48770;51.624;5.886;2024-03-02T06:51:15;99941.75;;;19.11;43.26
62710;BME280;48770;51.624;5.886;2024-03-02T06:53:41;99948.91;;;19.12;43.31
62710;BME280;48770;51.624;5.886;2024-03-02T06:56:07;99949.28;;;19.10;43.34
62710;BME280;48770;51.624;5.886;2024-03-02T06:58:34;99952.03;;;19.10;43.21
62710;BME280;48770;51.624;5.886;2024-03-02T07:00:59;99950.06;;;19.11;43.45
62710;BME280;48770;51.624;5.886;2024-03-02T07:03:27;99949.28;;;19.10;43.44
62710;BME280;48770;51.624;5.886;2024-03-02T07:05:53;99952.03;;;19.10;43.22
62710;BME280;48770;51.624;5.886;2024-03-02T07:08:18;99956.78;;;19.10;43.39
62710;BME280;48770;51.624;5.886;2024-03-02T07:10:43;99958.75;;;19.09;43.39
62710;BME280;48770;51.624;5.886;2024-03-02T07:13:08;99963.13;;;19.10;43.25
62710;BME280;48770;51.624;5.886;2024-03-02T07:15:34;99958.38;;;19.11;43.41
62710;BME280;48770;51.624;5.886;2024-03-02T07:18:15;99963.13;;;19.10;43.42
62710;BME280;48770;51.624;5.886;2024-03-02T07:20:40;99974.22;;;19.10;43.40
62710;BME280;48770;51.624;5.886;2024-03-02T07:23:05;99969.03;;;19.09;43.40
62710;BME280;48770;51.624;5.886;2024-03-02T07:25:31;99970.28;;;19.12;43.46
62710;BME280;48770;51.624;5.886;2024-03-02T07:27:56;99968.66;;;19.10;43.34
62710;BME280;48770;51.624;5.886;2024-03-02T07:30:22;99972.25;;;19.11;43.41
62710;BME280;48770;51.624;5.886;2024-03-02T07:32:50;99974.22;;;19.10;43.40
62710;BME280;48770;51.624;5.886;2024-03-02T07:35:15;99978.94;;;19.10;43.34
62710;BME280;48770;51.624;5.886;2024-03-02T07:37:41;99984.50;;;19.10;43.35
62710;BME280;48770;51.624;5.886;2024-03-02T07:40:08;99981.34;;;19.12;43.32
62710;BME280;48770;51.624;5.886;2024-03-02T07:42:39;99972.25;;;19.11;43.20
62710;BME280;48770;51.624;5.886;2024-03-02T07:45:06;99978.59;;;19.12;43.21
62710;BME280;48770;51.624;5.886;2024-03-02T07:47:34;99987.69;;;19.12;43.17
62710;BME280;48770;51.624;5.886;2024-03-02T07:50:00;99981.34;;;19.12;43.21
62710;BME280;48770;51.624;5.886;2024-03-02T07:52:25;99984.13;;;19.12;43.13
62710;BME280;48770;51.624;5.886;2024-03-02T07:54:51;99980.56;;;19.11;43.18
62710;BME280;48770;51.624;5.886;2024-03-02T07:57:16;99978.59;;;19.12;43.05
62710;BME280;48770;51.624;5.886;2024-03-02T07:59:42;99976.63;;;19.12;43.24
62710;BME280;48770;51.624;5.886;2024-03-02T08:02:08;99991.28;;;19.13;43.23
62710;BME280;48770;51.624;5.886;2024-03-02T08:04:33;99988.88;;;19.11;43.24
62710;BME280;48770;51.624;5.886;2024-03-02T08:06:58;99990.84;;;19.10;43.29
62710;BME280;48770;51.624;5.886;2024-03-02T08:09:24;99991.63;;;19.11;43.08
62710;BME280;48770;51.624;5.886;2024-03-02T08:11:49;99996.00;;;19.12;43.26
62710;BME280;48770;51.624;5.886;2024-03-02T08:14:14;100005.13;;;19.13;43.23
62710;BME280;48770;51.624;5.886;2024-03-02T08:16:40;99998.78;;;19.12;43.21
62710;BME280;48770;51.624;5.886;2024-03-02T08:19:07;99994.03;;;19.13;43.26
62710;BME280;48770;51.624;5.886;2024-03-02T08:21:34;100006.28;;;19.12;43.28
62710;BME280;48770;51.624;5.886;2024-03-02T08:24:01;99991.63;;;19.11;43.31
62710;BME280;48770;51.624;5.886;2024-03-02T08:26:27;100004.31;;;19.12;43.28
62710;BME280;48770;51.624;5.886;2024-03-02T08:28:54;99996.81;;;19.13;43.04
62710;BME280;48770;51.624;5.886;2024-03-02T08:31:19;100006.72;;;19.14;43.45
62710;BME280;48770;51.624;5.886;2024-03-02T08:33:44;100011.03;;;19.11;43.17
62710;BME280;48770;51.624;5.886;2024-03-02T08:36:10;100003.53;;;19.12;43.11
62710;BME280;48770;51.624;5.886;2024-03-02T08:38:35;100005.50;;;19.11;43.33
62710;BME280;48770;51.624;5.886;2024-03-02T08:41:01;100007.47;;;19.10;43.22
62710;BME280;48770;51.624;5.886;2024-03-02T08:43:26;100003.88;;;19.10;43.22
62710;BME280;48770;51.624;5.886;2024-03-02T08:45:51;100008.25;;;19.11;43.09
62710;BME280;48770;51.624;5.886;2024-03-02T08:48:17;100007.47;;;19.10;43.26
62710;BME280;48770;51.624;5.886;2024-03-02T08:50:42;100008.25;;;19.11;43.20
62710;BME280;48770;51.624;5.886;2024-03-02T08:53:08;100002.72;;;19.11;43.22
62710;BME280;48770;51.624;5.886;2024-03-02T08:55:33;100002.72;;;19.11;43.20
62710;BME280;48770;51.624;5.886;2024-03-02T08:57:58;100002.72;;;19.11;43.06
62710;BME280;48770;51.624;5.886;2024-03-02T09:00:24;100005.50;;;19.11;43.34
62710;BME280;48770;51.624;5.886;2024-03-02T09:02:50;100019.34;;;19.11;43.27
62710;BME280;48770;51.624;5.886;2024-03-02T09:05:15;100016.56;;;19.11;42.99
62710;BME280;48770;51.624;5.886;2024-03-02T09:07:41;100009.88;;;19.12;43.25
62710;BME280;48770;51.624;5.886;2024-03-02T09:10:08;100010.66;;;19.13;43.17
62710;BME280;48770;51.624;5.886;2024-03-02T09:12:33;100011.03;;;19.11;43.34
62710;BME280;48770;51.624;5.886;2024-03-02T09:15:02;100019.34;;;19.11;43.19
62710;BME280;48770;51.624;5.886;2024-03-02T09:17:28;100018.97;;;19.13;43.07
62710;BME280;48770;51.624;5.886;2024-03-02T09:19:54;100016.56;;;19.11;43.13
62710;BME280;48770;51.624;5.886;2024-03-02T09:22:19;100020.94;;;19.12;43.24
62710;BME280;48770;51.624;5.886;2024-03-02T09:24:45;100029.25;;;19.12;43.20
62710;BME280;48770;51.624;5.886;2024-03-02T09:27:10;100029.25;;;19.12;43.34
62710;BME280;48770;51.624;5.886;2024-03-02T09:29:36;100020.94;;;19.12;43.39
62710;BME280;48770;51.624;5.886;2024-03-02T09:32:01;100030.06;;;19.13;43.38
62710;BME280;48770;51.624;5.886;2024-03-02T09:34:27;100014.59;;;19.12;43.40
62710;BME280;48770;51.624;5.886;2024-03-02T09:36:52;100008.69;;;19.13;43.63
62710;BME280;48770;51.624;5.886;2024-03-02T09:39:17;100014.69;;;19.15;43.69
62710;BME280;48770;51.624;5.886;2024-03-02T09:41:43;100003.25;;;19.17;43.51
62710;BME280;48770;51.624;5.886;2024-03-02T09:44:09;100003.25;;;19.17;43.59
62710;BME280;48770;51.624;5.886;2024-03-02T09:46:34;100012.72;;;19.16;43.61
62710;BME280;48770;51.624;5.886;2024-03-02T09:49:02;100004.41;;;19.16;43.63
62710;BME280;48770;51.624;5.886;2024-03-02T09:51:27;100004.41;;;19.16;43.43
62710;BME280;48770;51.624;5.886;2024-03-02T09:53:54;100000.81;;;19.15;43.79
62710;BME280;48770;51.624;5.886;2024-03-02T09:56:21;100009.16;;;19.15;43.54
62710;BME280;48770;51.624;5.886;2024-03-02T09:58:47;100004.41;;;19.16;43.35
62710;BME280;48770;51.624;5.886;2024-03-02T10:01:12;100014.69;;;19.15;43.66
62710;BME280;48770;51.624;5.886;2024-03-02T10:03:38;100009.16;;;19.15;43.62
62710;BME280;48770;51.624;5.886;2024-03-02T10:06:24;100013.81;;;19.11;43.42
62710;BME280;48770;51.624;5.886;2024-03-02T10:08:50;100016.66;;;19.15;43.46
62710;BME280;48770;51.624;5.886;2024-03-02T10:11:29;100008.25;;;19.11;43.49
62710;BME280;48770;51.624;5.886;2024-03-02T10:14:09;100009.06;;;19.12;43.24
62710;BME280;48770;51.624;5.886;2024-03-02T10:16:37;100000.81;;;19.15;43.54
62710;BME280;48770;51.624;5.886;2024-03-02T10:19:18;100003.53;;;19.12;43.57
62710;BME280;48770;51.624;5.886;2024-03-02T10:21:48;99995.28;;;19.15;43.36
62710;BME280;48770;51.624;5.886;2024-03-02T10:24:15;99992.50;;;19.15;43.19
62710;BME280;48770;51.624;5.886;2024-03-02T10:26:40;99990.91;;;19.14;43.53
62710;BME280;48770;51.624;5.886;2024-03-02T10:29:08;99990.56;;;19.16;43.39
62710;BME280;48770;51.624;5.886;2024-03-02T10:31:33;99998.50;;;19.17;43.34
62710;BME280;48770;51.624;5.886;2024-03-02T10:33:59;99986.59;;;19.17;43.30
62710;BME280;48770;51.624;5.886;2024-03-02T10:36:25;99975.53;;;19.17;43.31
62710;BME280;48770;51.624;5.886;2024-03-02T10:38:51;99973.56;;;19.17;43.42
62710;BME280;48770;51.624;5.886;2024-03-02T10:41:23;99962.84;;;19.16;43.26
62710;BME280;48770;51.624;5.886;2024-03-02T10:43:51;99974.72;;;19.16;43.10
62710;BME280;48770;51.624;5.886;2024-03-02T10:46:19;99975.16;;;19.18;43.37
62710;BME280;48770;51.624;5.886;2024-03-02T10:48:46;99980.72;;;19.18;43.23
62710;BME280;48770;51.624;5.886;2024-03-02T10:51:12;99965.25;;;19.17;43.25
62710;BME280;48770;51.624;5.886;2024-03-02T10:53:37;99962.09;;;19.19;43.17
62710;BME280;48770;51.624;5.886;2024-03-02T10:56:07;99974.00;;;19.19;43.23
62710;BME280;48770;51.624;5.886;2024-03-02T10:58:33;99966.84;;;19.18;43.27
62710;BME280;48770;51.624;5.886;2024-03-02T11:01:02;99971.22;;;19.19;43.23
62710;BME280;48770;51.624;5.886;2024-03-02T11:03:33;99974.00;;;19.19;43.02
62710;BME280;48770;51.624;5.886;2024-03-02T11:06:00;99970.06;;;19.20;43.33
62710;BME280;48770;51.624;5.886;2024-03-02T11:08:31;99964.53;;;19.20;43.21
62710;BME280;48770;51.624;5.886;2024-03-02T11:11:06;99956.19;;;19.20;43.02
62710;BME280;48770;51.624;5.886;2024-03-02T11:13:32;99961.75;;;19.20;42.92
62710;BME280;48770;51.624;5.886;2024-03-02T11:16:27;99964.06;;;19.18;43.33
62710;BME280;48770;51.624;5.886;2024-03-02T11:18:57;99962.56;;;19.21;43.08
62710;BME280;48770;51.624;5.886;2024-03-02T11:21:24;99965.75;;;19.23;43.18
62710;BME280;48770;51.624;5.886;2024-03-02T11:23:49;99965.41;;;19.24;43.17
62710;BME280;48770;51.624;5.886;2024-03-02T11:28:44;99966.19;;;19.25;43.25
62710;BME280;48770;51.624;5.886;2024-03-02T11:31:10;99972.22;;;19.27;43.24
62710;BME280;48770;51.624;5.886;2024-03-02T11:33:35;99962.72;;;19.28;43.38
62710;BME280;48770;51.624;5.886;2024-03-02T11:36:01;99950.84;;;19.27;43.04
62710;BME280;48770;51.624;5.886;2024-03-02T11:38:33;99959.16;;;19.27;43.32
62710;BME280;48770;51.624;5.886;2024-03-02T11:41:07;99955.56;;;19.27;43.19
62710;BME280;48770;51.624;5.886;2024-03-02T11:43:37;99952.88;;;19.30;43.28
62710;BME280;48770;51.624;5.886;2024-03-02T11:46:05;99950.53;;;19.32;43.34
62710;BME280;48770;51.624;5.886;2024-03-02T11:48:35;99954.91;;;19.33;43.25
62710;BME280;48770;51.624;5.886;2024-03-02T11:51:02;99957.31;;;19.35;43.13
62710;BME280;48770;51.624;5.886;2024-03-02T11:53:28;99941.94;;;19.37;43.25
62710;BME280;48770;51.624;5.886;2024-03-02T11:55:58;99939.16;;;19.37;43.16
62710;BME280;48770;51.624;5.886;2024-03-02T11:58:23;99932.88;;;19.40;43.15
62710;BME280;48770;51.624;5.886;2024-03-02T12:00:53;99930.91;;;19.41;42.98
62710;BME280;48770;51.624;5.886;2024-03-02T12:03:21;99934.13;;;19.43;43.15
62710;BME280;48770;51.624;5.886;2024-03-02T12:05:52;99933.75;;;19.45;43.28
62710;BME280;48770;51.624;5.886;2024-03-02T12:08:18;99927.47;;;19.48;43.30
62710;BME280;48770;51.624;5.886;2024-03-02T12:10:55;99927.47;;;19.48;43.14
62710;BME280;48770;51.624;5.886;2024-03-02T12:13:21;99916.13;;;19.53;43.04
62710;BME280;48770;51.624;5.886;2024-03-02T12:15:47;99917.38;;;19.55;43.03
62710;BME280;48770;51.624;5.886;2024-03-02T12:18:12;99904.31;;;19.56;43.30
62710;BME280;48770;51.624;5.886;2024-03-02T12:20:37;99911.47;;;19.57;42.93
62710;BME280;48770;51.624;5.886;2024-03-02T12:23:04;99911.91;;;19.59;42.91
62710;BME280;48770;51.624;5.886;2024-03-02T12:25:30;99914.75;;;19.62;43.10
62710;BME280;48770;51.624;5.886;2024-03-02T12:27:58;99908.47;;;19.65;43.04
62710;BME280;48770;51.624;5.886;2024-03-02T12:30:27;99904.97;;;19.68;42.90
62710;BME280;48770;51.624;5.886;2024-03-02T12:32:52;99903.78;;;19.69;43.00
62710;BME280;48770;51.624;5.886;2024-03-02T12:35:18;99895.53;;;19.73;42.91
62710;BME280;48770;51.624;5.886;2024-03-02T12:37:51;99888.00;;;19.74;42.86
62710;BME280;48770;51.624;5.886;2024-03-02T12:40:18;99884.50;;;19.77;43.09
62710;BME280;48770;51.624;5.886;2024-03-02T12:42:45;99887.72;;;19.79;42.95
62710;BME280;48770;51.624;5.886;2024-03-02T12:45:12;99878.66;;;19.82;43.01
62710;BME280;48770;51.624;5.886;2024-03-02T12:47:39;99879.09;;;19.84;42.83
62710;BME280;48770;51.624;5.886;2024-03-02T12:50:06;99871.59;;;19.84;43.05
62710;BME280;48770;51.624;5.886;2024-03-02T12:52:32;99867.63;;;19.85;42.85
62710;BME280;48770;51.624;5.886;2024-03-02T12:54:58;99861.72;;;19.87;42.78
62710;BME280;48770;51.624;5.886;2024-03-02T12:57:34;99872.00;;;19.86;43.07
62710;BME280;48770;51.624;5.886;2024-03-02T13:00:00;99870.47;;;19.89;43.18